createdAt,value
2023-05-10T00:01:21.283Z,60.40
2023-05-10T00:03:48.079Z,60.34
2023-05-10T00:06:15.849Z,60.53
2023-05-10T00:08:42.693Z,60.64
2023-05-10T00:11:09.356Z,61.05
2023-05-10T00:13:36.045Z,61.39
2023-05-10T00:16:02.927Z,61.57
2023-05-10T00:18:29.699Z,61.90
2023-05-10T00:20:56.285Z,62.19
2023-05-10T00:23:23.112Z,62.47
2023-05-10T00:25:49.790Z,62.59
2023-05-10T00:28:16.463Z,63.02
2023-05-10T00:30:43.161Z,63.52
2023-05-10T00:33:09.902Z,63.59
2023-05-10T00:35:37.156Z,63.55
2023-05-10T00:38:03.821Z,63.88
2023-05-10T00:40:31.680Z,63.81
2023-05-10T00:42:59.358Z,64.10
2023-05-10T00:45:26.141Z,64.29
2023-05-10T00:47:56.347Z,64.59
2023-05-10T00:50:24.027Z,64.61
2023-05-10T00:52:51.490Z,64.82
2023-05-10T00:55:19.396Z,65.00
2023-05-10T00:57:46.868Z,65.07
2023-05-10T01:00:19.025Z,65.43
2023-05-10T01:02:47.581Z,65.64
2023-05-10T01:05:15.040Z,65.71
2023-05-10T01:07:42.239Z,66.04
2023-05-10T01:10:09.953Z,66.32
2023-05-10T01:12:43.805Z,66.45
2023-05-10T01:15:12.571Z,66.69
2023-05-10T01:17:43.568Z,66.50
2023-05-10T01:20:11.781Z,66.67
2023-05-10T01:22:59.341Z,66.93
2023-05-10T01:25:52.046Z,66.98
2023-05-10T01:28:49.586Z,67.12
2023-05-10T01:31:29.883Z,67.59
2023-05-10T01:34:17.485Z,67.94
2023-05-10T01:36:52.355Z,68.03
2023-05-10T01:39:36.970Z,68.05
2023-05-10T01:42:10.002Z,68.25
2023-05-10T01:44:45.691Z,68.43
2023-05-10T01:47:16.923Z,68.71
2023-05-10T01:49:56.134Z,68.75
2023-05-10T01:52:34.465Z,68.80
2023-05-10T01:55:09.194Z,69.00
2023-05-10T01:57:38.438Z,69.35
2023-05-10T02:00:05.997Z,69.79
2023-05-10T02:02:38.838Z,70.13
2023-05-10T02:05:07.962Z,70.22
2023-05-10T02:07:37.617Z,70.32
2023-05-10T02:10:07.447Z,70.51
2023-05-10T02:12:38.793Z,70.41
2023-05-10T02:15:08.151Z,70.74
2023-05-10T02:17:37.404Z,71.02
2023-05-10T02:20:07.620Z,71.13
2023-05-10T02:22:37.003Z,71.35
2023-05-10T02:25:04.983Z,71.48
2023-05-10T02:27:32.691Z,71.43
2023-05-10T02:29:59.938Z,71.56
2023-05-10T02:32:28.834Z,71.54
2023-05-10T02:34:58.476Z,71.72
2023-05-10T02:37:26.584Z,72.00
2023-05-10T02:39:56.151Z,71.91
2023-05-10T02:42:28.858Z,72.18
2023-05-10T02:45:00.672Z,72.65
2023-05-10T02:47:28.567Z,72.70
2023-05-10T02:49:55.718Z,73.00
2023-05-10T02:52:29.310Z,73.11
2023-05-10T02:54:59.680Z,73.25
2023-05-10T02:57:30.087Z,72.78
2023-05-10T02:59:56.842Z,72.63
2023-05-10T03:02:23.677Z,73.37
2023-05-10T03:04:50.565Z,73.18
2023-05-10T03:07:20.475Z,73.22
2023-05-10T03:09:47.233Z,72.85
2023-05-10T03:12:51.321Z,72.80
2023-05-10T03:15:21.381Z,72.82
2023-05-10T03:17:56.717Z,73.54
2023-05-10T03:20:42.531Z,73.58
2023-05-10T03:23:17.947Z,73.20
2023-05-10T03:25:45.766Z,73.20
2023-05-10T03:28:15.537Z,73.77
2023-05-10T03:30:44.606Z,73.76
2023-05-10T03:33:11.989Z,73.67
2023-05-10T03:35:38.590Z,73.31
2023-05-10T03:38:05.589Z,73.06
2023-05-10T03:40:33.205Z,73.15
2023-05-10T03:43:00.471Z,72.88
2023-05-10T03:45:27.523Z,71.84
2023-05-10T03:47:55.115Z,70.78
2023-05-10T03:50:22.250Z,69.79
2023-05-10T03:52:49.356Z,68.44
2023-05-10T03:55:16.357Z,66.81
2023-05-10T03:57:43.307Z,65.70
2023-05-10T04:00:11.064Z,64.80
2023-05-10T04:02:38.659Z,63.39
2023-05-10T04:05:05.952Z,62.39
2023-05-10T04:07:32.644Z,61.27
2023-05-10T04:09:59.317Z,60.38
2023-05-10T04:12:26.187Z,59.85
2023-05-10T04:14:53.453Z,58.74
2023-05-10T04:17:20.180Z,58.48
2023-05-10T04:19:46.867Z,57.62
2023-05-10T04:22:13.487Z,56.74
2023-05-10T04:24:40.164Z,56.01
2023-05-10T04:27:06.875Z,55.78
2023-05-10T04:29:33.519Z,54.87
2023-05-10T04:32:00.275Z,54.95
2023-05-10T04:34:27.170Z,54.09
2023-05-10T04:36:53.885Z,53.33
2023-05-10T04:39:20.749Z,52.84
2023-05-10T04:41:47.545Z,52.16
2023-05-10T04:44:14.248Z,51.59
2023-05-10T04:46:40.942Z,51.32
2023-05-10T04:49:07.663Z,50.87
2023-05-10T04:51:34.521Z,49.86
2023-05-10T04:54:06.497Z,49.79
2023-05-10T04:56:33.507Z,49.13
2023-05-10T04:59:00.421Z,49.06
2023-05-10T05:01:27.295Z,48.68
2023-05-10T05:03:54.278Z,48.14
2023-05-10T05:06:22.323Z,48.32
2023-05-10T05:08:50.686Z,48.19
2023-05-10T05:11:18.287Z,47.44
2023-05-10T05:13:45.125Z,47.73
2023-05-10T05:16:12.822Z,47.02
2023-05-10T05:18:39.697Z,46.94
2023-05-10T05:21:19.574Z,46.47
2023-05-10T05:23:47.369Z,46.09
2023-05-10T05:26:14.129Z,46.17
2023-05-10T05:28:40.841Z,46.08
2023-05-10T05:31:11.275Z,45.67
2023-05-10T05:33:38.382Z,45.27
2023-05-10T05:36:06.570Z,44.96
2023-05-10T05:38:33.596Z,44.56
2023-05-10T05:41:00.422Z,44.68
2023-05-10T05:43:27.541Z,44.48
2023-05-10T05:45:59.172Z,45.11
2023-05-10T05:48:27.503Z,45.08
2023-05-10T05:51:00.349Z,45.60
2023-05-10T05:53:27.393Z,44.72
2023-05-10T05:55:54.545Z,44.98
2023-05-10T05:58:22.170Z,44.82
2023-05-10T06:00:49.588Z,45.03
2023-05-10T06:03:16.833Z,45.26
2023-05-10T06:05:43.676Z,45.47
2023-05-10T06:08:10.923Z,45.16
2023-05-10T06:10:37.858Z,45.40
2023-05-10T06:13:04.632Z,46.29
2023-05-10T06:15:31.347Z,46.15
2023-05-10T06:17:58.057Z,45.62
2023-05-10T06:20:24.835Z,45.72
2023-05-10T06:22:51.734Z,46.28
2023-05-10T06:25:19.575Z,46.45
2023-05-10T06:27:50.967Z,46.93
2023-05-10T06:30:20.013Z,47.25
2023-05-10T06:32:47.333Z,46.24
2023-05-10T06:35:14.209Z,46.37
2023-05-10T06:37:41.084Z,46.48
2023-05-10T06:40:08.725Z,46.65
2023-05-10T06:42:35.395Z,46.79
2023-05-10T06:45:02.273Z,46.72
2023-05-10T06:47:28.915Z,46.15
2023-05-10T06:49:55.986Z,46.31
2023-05-10T06:52:22.732Z,46.18
2023-05-10T06:54:49.535Z,45.40
2023-05-10T06:57:30.714Z,45.87
2023-05-10T07:00:00.073Z,45.26
2023-05-10T07:02:27.290Z,44.25
2023-05-10T07:04:54.384Z,44.84
2023-05-10T07:07:21.478Z,43.13
2023-05-10T07:09:48.257Z,42.93
2023-05-10T07:12:16.093Z,42.77
2023-05-10T07:14:43.280Z,42.88
2023-05-10T07:17:10.409Z,43.33
2023-05-10T07:19:37.363Z,43.51
2023-05-10T07:22:07.154Z,43.24
2023-05-10T07:24:34.299Z,43.33
2023-05-10T07:27:01.018Z,43.26
2023-05-10T07:29:27.807Z,43.91
2023-05-10T07:31:57.089Z,44.58
2023-05-10T07:34:25.669Z,44.86
2023-05-10T07:36:53.105Z,43.96
2023-05-10T07:39:26.516Z,43.75
2023-05-10T07:41:58.043Z,44.15
2023-05-10T07:44:24.805Z,44.41
2023-05-10T07:46:51.622Z,44.03
2023-05-10T07:49:18.548Z,42.96
2023-05-10T07:51:45.345Z,43.73
2023-05-10T07:54:12.137Z,44.42
2023-05-10T07:56:39.309Z,44.96
2023-05-10T07:59:09.285Z,44.38
2023-05-10T08:01:37.161Z,44.42
2023-05-10T08:04:04.069Z,43.51
2023-05-10T08:06:31.358Z,43.94
2023-05-10T08:08:58.340Z,44.69
2023-05-10T08:11:25.410Z,44.78
2023-05-10T08:13:52.442Z,44.97
2023-05-10T08:16:19.524Z,44.14
2023-05-10T08:18:48.195Z,46.44
2023-05-10T08:21:15.880Z,46.66
2023-05-10T08:23:44.756Z,45.83
2023-05-10T08:26:12.013Z,48.24
2023-05-10T08:28:38.723Z,47.70
2023-05-10T08:31:06.438Z,47.29
2023-05-10T08:33:33.184Z,48.04
2023-05-10T08:35:59.974Z,49.39
2023-05-10T08:38:27.099Z,47.67
2023-05-10T08:40:57.840Z,47.98
2023-05-10T08:43:30.323Z,47.07
2023-05-10T08:45:58.150Z,46.24
2023-05-10T08:48:26.055Z,47.74
2023-05-10T08:50:56.198Z,48.08
2023-05-10T08:53:27.834Z,47.81
2023-05-10T08:55:54.771Z,47.82
2023-05-10T08:58:21.474Z,46.77
2023-05-10T09:00:50.191Z,47.77
2023-05-10T09:03:17.181Z,47.07
2023-05-10T09:05:44.001Z,47.01
2023-05-10T09:08:11.055Z,48.28
2023-05-10T09:10:40.739Z,47.90
2023-05-10T09:13:10.235Z,48.09
2023-05-10T09:15:37.029Z,45.64
2023-05-10T09:18:03.820Z,46.97
2023-05-10T09:20:30.658Z,47.01
2023-05-10T09:22:57.391Z,45.64
2023-05-10T09:25:24.235Z,45.69
2023-05-10T09:27:51.311Z,46.30
2023-05-10T09:30:29.866Z,46.44
2023-05-10T09:32:58.172Z,45.65
2023-05-10T09:35:29.505Z,45.30
2023-05-10T09:37:59.312Z,45.59
2023-05-10T09:40:28.415Z,44.13
2023-05-10T09:43:08.329Z,44.78
2023-05-10T09:45:39.186Z,44.72
2023-05-10T09:48:06.625Z,44.96
2023-05-10T09:50:39.391Z,44.91
2023-05-10T09:53:06.130Z,44.38
2023-05-10T09:55:47.114Z,43.61
2023-05-10T09:58:15.509Z,43.89
2023-05-10T10:00:48.956Z,43.22
2023-05-10T10:03:17.403Z,42.86
2023-05-10T10:05:45.118Z,42.83
2023-05-10T10:08:13.325Z,42.89
2023-05-10T10:10:46.856Z,43.03
2023-05-10T10:13:14.410Z,42.79
2023-05-10T10:15:41.478Z,41.98
2023-05-10T10:18:12.562Z,41.99
2023-05-10T10:20:39.352Z,42.48
2023-05-10T10:23:05.975Z,42.82
2023-05-10T10:25:32.917Z,42.17
2023-05-10T10:28:12.248Z,42.11
2023-05-10T10:30:49.783Z,41.64
2023-05-10T10:33:42.041Z,40.93
2023-05-10T10:36:08.884Z,41.83
2023-05-10T10:38:47.903Z,41.93
2023-05-10T10:41:51.182Z,41.44
2023-05-10T10:44:27.338Z,41.95
2023-05-10T10:47:13.297Z,41.62
2023-05-10T10:49:47.055Z,42.21
2023-05-10T10:52:29.764Z,42.18
2023-05-10T10:55:00.602Z,42.08
2023-05-10T10:57:27.811Z,41.72
2023-05-10T11:00:33.792Z,41.06
2023-05-10T11:03:20.072Z,41.10
2023-05-10T11:05:50.714Z,41.11
2023-05-10T11:08:38.344Z,41.18
2023-05-10T11:11:10.056Z,40.92
2023-05-10T11:13:50.900Z,41.06
2023-05-10T11:16:18.265Z,41.01
2023-05-10T11:19:12.335Z,41.42
2023-05-10T11:21:49.318Z,41.59
2023-05-10T11:24:19.181Z,41.86
2023-05-10T11:26:46.065Z,41.50
2023-05-10T11:29:14.726Z,40.68
2023-05-10T11:31:46.354Z,39.84
2023-05-10T11:34:23.589Z,39.25
2023-05-10T11:36:55.133Z,39.72
2023-05-10T11:39:22.815Z,40.25
2023-05-10T11:41:50.738Z,40.07
2023-05-10T11:44:17.835Z,40.36
2023-05-10T11:46:44.804Z,40.73
2023-05-10T11:49:14.555Z,40.77
2023-05-10T11:51:43.374Z,40.48
2023-05-10T11:54:12.939Z,39.90
2023-05-10T11:56:41.015Z,38.81
2023-05-10T11:59:09.241Z,39.46
2023-05-10T12:01:37.939Z,39.73
2023-05-10T12:04:04.904Z,39.89
2023-05-10T12:06:34.329Z,40.17
2023-05-10T12:09:08.415Z,39.76
2023-05-10T12:11:44.063Z,39.10
2023-05-10T12:14:11.812Z,39.51
2023-05-10T12:16:38.707Z,40.01
2023-05-10T12:19:06.608Z,39.43
2023-05-10T12:21:33.860Z,39.20
2023-05-10T12:24:03.352Z,39.11
2023-05-10T12:26:30.963Z,39.21
2023-05-10T12:29:21.293Z,39.33
2023-05-10T12:31:56.987Z,39.09
2023-05-10T12:34:35.311Z,38.93
2023-05-10T12:37:02.888Z,39.14
2023-05-10T12:39:43.202Z,39.28
2023-05-10T12:42:10.125Z,39.55
2023-05-10T12:44:36.833Z,39.61
2023-05-10T12:47:03.727Z,39.48
2023-05-10T12:49:30.527Z,39.21
2023-05-10T12:51:57.263Z,38.61
2023-05-10T12:54:24.082Z,39.04
2023-05-10T12:56:50.710Z,38.49
2023-05-10T12:59:17.610Z,38.55
2023-05-10T13:01:44.394Z,38.21
2023-05-10T13:04:11.339Z,38.55
2023-05-10T13:06:38.328Z,38.92
2023-05-10T13:09:05.130Z,38.56
2023-05-10T13:11:31.926Z,39.04
2023-05-10T13:13:58.951Z,38.95
2023-05-10T13:16:25.980Z,38.85
2023-05-10T13:18:53.072Z,38.52
2023-05-10T13:21:19.877Z,38.34
2023-05-10T13:23:47.818Z,38.60
2023-05-10T13:26:16.777Z,38.37
2023-05-10T13:28:44.760Z,38.30
2023-05-10T13:31:11.674Z,39.00
2023-05-10T13:33:38.502Z,38.80
2023-05-10T13:36:05.705Z,38.74
2023-05-10T13:38:32.472Z,38.94
2023-05-10T13:40:59.360Z,39.02
2023-05-10T13:43:26.077Z,38.45
2023-05-10T13:45:53.450Z,38.92
2023-05-10T13:48:20.149Z,39.21
2023-05-10T13:50:47.529Z,38.73
2023-05-10T13:53:14.385Z,39.44
2023-05-10T13:56:37.683Z,38.83
2023-05-10T13:59:04.456Z,39.05
2023-05-10T14:01:31.324Z,39.04
2023-05-10T14:03:58.237Z,38.76
2023-05-10T14:06:25.155Z,38.54
2023-05-10T14:08:52.358Z,38.75
2023-05-10T14:11:19.396Z,38.82
2023-05-10T14:13:46.308Z,38.90
2023-05-10T14:16:13.356Z,39.18
2023-05-10T14:18:40.290Z,39.50
2023-05-10T14:21:07.333Z,38.81
2023-05-10T14:23:34.142Z,39.30
2023-05-10T14:26:00.955Z,38.50
2023-05-10T14:28:27.736Z,38.95
2023-05-10T14:30:54.620Z,39.08
2023-05-10T14:33:22.011Z,38.93
2023-05-10T14:35:49.242Z,38.98
2023-05-10T14:38:16.002Z,38.94
2023-05-10T14:40:43.899Z,38.74
2023-05-10T14:43:10.653Z,38.68
2023-05-10T14:45:37.521Z,39.04
2023-05-10T14:48:05.964Z,39.40
2023-05-10T14:50:36.992Z,39.22
2023-05-10T14:53:38.397Z,39.12
2023-05-10T14:56:05.377Z,39.08
2023-05-10T14:58:34.019Z,39.38
2023-05-10T15:01:01.473Z,39.06
2023-05-10T15:03:28.942Z,39.05
2023-05-10T15:05:59.104Z,38.83
2023-05-10T15:08:26.356Z,39.09
2023-05-10T15:10:53.669Z,39.31
2023-05-10T15:13:21.074Z,39.29
2023-05-10T15:15:47.842Z,39.29
2023-05-10T15:18:14.584Z,39.23
2023-05-10T15:20:41.335Z,39.17
2023-05-10T15:23:08.321Z,39.25
2023-05-10T15:25:38.718Z,39.25
2023-05-10T15:28:08.825Z,39.18
2023-05-10T15:30:35.560Z,39.13
2023-05-10T15:33:02.854Z,39.17
2023-05-10T15:35:29.718Z,39.63
2023-05-10T15:37:56.451Z,39.51
2023-05-10T15:40:23.260Z,39.38
2023-05-10T15:42:50.043Z,39.44
2023-05-10T15:45:16.983Z,39.37
2023-05-10T15:47:45.353Z,39.74
2023-05-10T15:50:12.739Z,39.68
2023-05-10T15:52:39.527Z,39.87
2023-05-10T15:55:13.912Z,39.95
2023-05-10T15:57:41.853Z,39.82
2023-05-10T16:00:09.903Z,39.65
2023-05-10T16:02:36.860Z,39.94
2023-05-10T16:05:04.434Z,39.99
2023-05-10T16:07:31.277Z,39.96
2023-05-10T16:09:58.112Z,39.94
2023-05-10T16:12:25.834Z,39.82
2023-05-10T16:14:52.569Z,40.16
2023-05-10T16:17:20.686Z,40.10
2023-05-10T16:19:47.767Z,40.25
2023-05-10T16:22:15.183Z,40.23
2023-05-10T16:24:42.730Z,40.29
2023-05-10T16:27:10.447Z,40.58
2023-05-10T16:29:37.197Z,40.53
2023-05-10T16:32:03.923Z,40.62
2023-05-10T16:34:30.735Z,40.70
2023-05-10T16:36:57.473Z,40.92
2023-05-10T16:39:24.332Z,40.85
2023-05-10T16:41:51.086Z,40.90
2023-05-10T16:44:20.587Z,41.02
2023-05-10T16:46:47.981Z,41.15
2023-05-10T16:49:14.865Z,41.41
2023-05-10T16:51:41.684Z,41.39
2023-05-10T16:54:08.547Z,41.62
2023-05-10T16:56:35.292Z,41.46
2023-05-10T16:59:02.062Z,41.65
2023-05-10T17:01:28.830Z,41.92
2023-05-10T17:03:55.951Z,41.78
2023-05-10T17:06:22.760Z,42.13
2023-05-10T17:08:49.520Z,41.96
2023-05-10T17:11:16.239Z,41.93
2023-05-10T17:13:42.992Z,42.31
2023-05-10T17:16:09.859Z,42.33
2023-05-10T17:18:36.808Z,42.40
2023-05-10T17:21:03.771Z,42.60
2023-05-10T17:23:30.674Z,42.55
2023-05-10T17:25:58.995Z,42.78
2023-05-10T17:28:27.056Z,42.95
2023-05-10T17:30:58.065Z,43.31
2023-05-10T17:33:24.788Z,43.52
2023-05-10T17:35:52.160Z,43.52
2023-05-10T17:38:18.827Z,43.87
2023-05-10T17:40:45.589Z,43.95
2023-05-10T17:43:12.296Z,44.27
2023-05-10T17:45:40.182Z,44.20
2023-05-10T17:48:08.005Z,44.53
2023-05-10T17:50:35.622Z,44.64
2023-05-10T17:53:03.083Z,44.87
2023-05-10T17:55:31.049Z,45.38
2023-05-10T17:57:59.740Z,45.34
2023-05-10T18:00:26.780Z,45.43
2023-05-10T18:02:53.655Z,45.52
2023-05-10T18:05:22.121Z,45.73
2023-05-10T18:07:49.226Z,45.91
2023-05-10T18:10:15.980Z,46.09
2023-05-10T18:12:42.797Z,46.38
2023-05-10T18:15:10.021Z,46.59
2023-05-10T18:17:37.213Z,46.86
2023-05-10T18:20:04.280Z,46.99
2023-05-10T18:22:31.012Z,47.45
2023-05-10T18:24:57.691Z,47.42
2023-05-10T18:27:24.638Z,47.59
2023-05-10T18:29:52.275Z,47.74
2023-05-10T18:32:19.200Z,47.92
2023-05-10T18:34:46.094Z,48.23
2023-05-10T18:37:12.955Z,48.21
2023-05-10T18:39:40.102Z,48.43
2023-05-10T18:42:07.986Z,48.50
2023-05-10T18:44:34.868Z,48.54
2023-05-10T18:47:01.717Z,48.69
2023-05-10T18:49:29.558Z,48.55
2023-05-10T18:51:56.474Z,48.64
2023-05-10T18:54:23.352Z,48.54
2023-05-10T18:56:50.215Z,48.71
2023-05-10T18:59:17.020Z,48.63
2023-05-10T19:01:43.771Z,48.92
2023-05-10T19:04:10.968Z,48.74
2023-05-10T19:06:38.183Z,48.57
2023-05-10T19:09:05.481Z,48.63
2023-05-10T19:11:34.948Z,48.64
2023-05-10T19:14:02.916Z,48.69
2023-05-10T19:16:30.961Z,48.97
2023-05-10T19:18:58.175Z,49.03
2023-05-10T19:21:25.747Z,48.79
2023-05-10T19:23:54.042Z,48.98
2023-05-10T19:26:22.560Z,48.66
2023-05-10T19:28:52.981Z,48.59
2023-05-10T19:31:21.061Z,48.73
2023-05-10T19:33:47.997Z,48.74
2023-05-10T19:36:14.788Z,48.81
2023-05-10T19:38:41.853Z,48.45
2023-05-10T19:41:11.147Z,48.75
2023-05-10T19:43:38.718Z,48.81
2023-05-10T19:46:05.465Z,48.99
2023-05-10T19:48:32.361Z,48.77
2023-05-10T19:51:03.467Z,48.55
2023-05-10T19:53:30.574Z,48.70
2023-05-10T19:56:03.981Z,48.56
2023-05-10T19:58:30.918Z,48.31
2023-05-10T20:00:57.816Z,48.36
2023-05-10T20:03:24.647Z,48.34
2023-05-10T20:05:51.491Z,47.99
2023-05-10T20:08:18.128Z,48.09
2023-05-10T20:10:44.814Z,48.05
2023-05-10T20:13:11.684Z,48.06
2023-05-10T20:15:38.389Z,48.17
2023-05-10T20:18:05.280Z,47.96
2023-05-10T20:20:32.223Z,48.10
2023-05-10T20:23:00.013Z,48.12
2023-05-10T20:25:26.808Z,48.12
2023-05-10T20:27:53.872Z,48.14
2023-05-10T20:30:20.790Z,48.05
2023-05-10T20:32:48.974Z,48.10
2023-05-10T20:35:15.899Z,48.23
2023-05-10T20:37:42.577Z,47.97
2023-05-10T20:40:09.747Z,48.04
2023-05-10T20:42:36.560Z,48.15
2023-05-10T20:45:03.596Z,48.20
2023-05-10T20:47:30.398Z,48.35
2023-05-10T20:49:57.168Z,48.18
2023-05-10T20:52:24.734Z,48.44
2023-05-10T20:54:51.974Z,48.35
2023-05-10T20:57:18.691Z,48.50
2023-05-10T20:59:46.420Z,48.68
2023-05-10T21:02:13.150Z,48.76
2023-05-10T21:04:51.159Z,48.69
2023-05-10T21:07:19.019Z,48.82
2023-05-10T21:09:45.806Z,48.92
2023-05-10T21:12:13.431Z,48.71
2023-05-10T21:14:42.184Z,49.00
2023-05-10T21:17:09.108Z,49.14
2023-05-10T21:19:35.761Z,49.06
2023-05-10T21:22:03.628Z,49.30
2023-05-10T21:24:30.698Z,49.58
2023-05-10T21:26:57.520Z,49.68
2023-05-10T21:29:24.168Z,49.69
2023-05-10T21:31:51.235Z,49.88
2023-05-10T21:34:18.136Z,50.16
2023-05-10T21:36:44.981Z,50.12
2023-05-10T21:39:11.937Z,50.25
2023-05-10T21:41:38.705Z,50.60
2023-05-10T21:44:05.537Z,50.86
2023-05-10T21:46:32.247Z,50.83
2023-05-10T21:48:58.895Z,50.95
2023-05-10T21:51:25.654Z,50.99
2023-05-10T21:53:52.319Z,51.07
2023-05-10T21:56:19.025Z,51.45
2023-05-10T21:58:45.901Z,51.38
2023-05-10T22:01:14.759Z,51.51
2023-05-10T22:03:41.471Z,51.93
2023-05-10T22:06:08.662Z,51.99
2023-05-10T22:08:35.721Z,52.02
2023-05-10T22:11:02.412Z,52.27
2023-05-10T22:13:29.327Z,52.06
2023-05-10T22:15:55.930Z,52.09
2023-05-10T22:18:22.643Z,52.13
2023-05-10T22:20:49.301Z,52.32
2023-05-10T22:23:16.210Z,52.50
2023-05-10T22:25:42.918Z,52.47
2023-05-10T22:28:09.669Z,52.60
2023-05-10T22:30:36.364Z,52.63
2023-05-10T22:33:03.152Z,52.58
2023-05-10T22:35:29.979Z,52.53
2023-05-10T22:37:56.816Z,52.54
2023-05-10T22:40:23.459Z,52.57
2023-05-10T22:42:50.213Z,52.67
2023-05-10T22:45:16.978Z,52.56
2023-05-10T22:47:43.735Z,52.54
2023-05-10T22:50:11.898Z,52.63
2023-05-10T22:52:39.576Z,52.74
2023-05-10T22:55:07.304Z,52.64
2023-05-10T22:57:34.509Z,53.11
2023-05-10T23:00:01.504Z,53.03
2023-05-10T23:02:28.158Z,53.29
2023-05-10T23:04:54.890Z,53.68
2023-05-10T23:07:21.576Z,53.92
2023-05-10T23:09:49.030Z,53.83
2023-05-10T23:12:15.822Z,53.94
2023-05-10T23:14:42.578Z,53.64
2023-05-10T23:17:09.212Z,54.21
2023-05-10T23:19:35.860Z,54.62
2023-05-10T23:22:02.459Z,54.55
2023-05-10T23:24:29.397Z,54.72
2023-05-10T23:26:56.212Z,54.81
2023-05-10T23:29:24.122Z,55.08
2023-05-10T23:31:51.447Z,54.90
2023-05-10T23:34:18.418Z,54.98
2023-05-10T23:36:45.027Z,55.01
2023-05-10T23:39:12.256Z,54.92
2023-05-10T23:41:38.980Z,55.22
2023-05-10T23:44:05.727Z,55.07
2023-05-10T23:46:32.416Z,55.08
2023-05-10T23:48:59.195Z,55.42
2023-05-10T23:51:26.185Z,55.28
2023-05-10T23:53:52.857Z,55.31
2023-05-10T23:56:21.865Z,55.66
2023-05-10T23:58:48.622Z,55.81
